createdAt,value
2018-05-21T00:00:54.778Z,21.60
2018-05-21T00:01:54.790Z,21.00
2018-05-21T00:02:54.861Z,20.90
2018-05-21T00:03:54.834Z,20.90
2018-05-21T00:04:54.842Z,20.70
2018-05-21T00:05:54.866Z,21.10
2018-05-21T00:06:54.883Z,20.70
2018-05-21T00:07:54.974Z,20.90
2018-05-21T00:08:54.959Z,21.70
2018-05-21T00:09:54.977Z,21.70
2018-05-21T00:10:54.944Z,22.20
2018-05-21T00:11:54.967Z,22.40
2018-05-21T00:12:54.986Z,22.50
2018-05-21T00:13:55.002Z,23.20
2018-05-21T00:14:55.068Z,23.00
2018-05-21T00:15:55.029Z,23.70
2018-05-21T00:16:55.047Z,23.00
2018-05-21T00:17:55.073Z,22.90
2018-05-21T00:18:55.085Z,23.80
2018-05-21T00:19:55.105Z,23.40
2018-05-21T00:20:55.167Z,24.00
2018-05-21T00:21:55.136Z,24.60
2018-05-21T00:22:55.153Z,24.90
2018-05-21T00:23:55.164Z,24.70
2018-05-21T00:24:55.186Z,24.40
2018-05-21T00:25:55.206Z,24.20
2018-05-21T00:26:55.216Z,25.00
2018-05-21T00:27:55.239Z,24.70
2018-05-21T00:28:55.254Z,25.80
2018-05-21T00:29:55.293Z,24.80
2018-05-21T00:30:55.286Z,25.50
2018-05-21T00:31:55.352Z,25.40
2018-05-21T00:32:55.324Z,26.00
2018-05-21T00:33:55.342Z,26.50
2018-05-21T00:34:55.353Z,27.40
2018-05-21T00:35:55.389Z,27.40
2018-05-21T00:36:55.386Z,27.20
2018-05-21T00:37:55.456Z,28.00
2018-05-21T00:38:55.420Z,27.50
2018-05-21T00:39:55.438Z,28.10
2018-05-21T00:40:55.450Z,27.20
2018-05-21T00:41:55.475Z,27.80
2018-05-21T00:42:55.489Z,28.00
2018-05-21T00:43:55.503Z,29.50
2018-05-21T00:44:55.521Z,28.40
2018-05-21T00:45:55.545Z,29.10
2018-05-21T00:46:55.577Z,29.70
2018-05-21T00:47:55.574Z,29.60
2018-05-21T00:48:55.595Z,28.70
2018-05-21T00:49:55.658Z,30.40
2018-05-21T00:50:55.627Z,30.80
2018-05-21T00:51:55.638Z,31.10
2018-05-21T00:52:55.655Z,31.40
2018-05-21T00:53:55.673Z,29.60
2018-05-21T00:54:55.695Z,31.20
2018-05-21T00:55:55.759Z,30.10
2018-05-21T00:56:55.730Z,29.50
2018-05-21T00:57:55.746Z,29.40
2018-05-21T00:58:55.769Z,30.30
2018-05-21T00:59:55.782Z,29.80
2018-05-21T01:00:55.794Z,30.90
2018-05-21T01:01:55.864Z,30.60
2018-05-21T01:02:55.838Z,30.90
2018-05-21T01:03:55.847Z,30.70
2018-05-21T01:04:55.900Z,31.30
2018-05-21T01:05:55.884Z,29.40
2018-05-21T01:06:55.902Z,31.70
2018-05-21T01:07:55.911Z,33.30
2018-05-21T01:08:55.929Z,31.50
2018-05-21T01:09:55.948Z,32.20
2018-05-21T01:10:55.988Z,32.20
2018-05-21T01:11:55.983Z,32.80
2018-05-21T01:12:56.002Z,33.60
2018-05-21T01:13:56.018Z,31.30
2018-05-21T01:14:56.035Z,32.10
2018-05-21T01:15:56.054Z,32.40
2018-05-21T01:16:56.070Z,32.20
2018-05-21T01:17:56.087Z,31.30
2018-05-21T01:18:56.104Z,30.80
2018-05-21T01:19:56.119Z,30.90
2018-05-21T01:20:56.137Z,30.90
2018-05-21T01:21:56.155Z,29.50
2018-05-21T01:22:56.171Z,30.90
2018-05-21T01:23:56.187Z,30.00
2018-05-21T01:24:56.206Z,30.50
2018-05-21T01:25:56.223Z,29.60
2018-05-21T01:26:56.243Z,30.30
2018-05-21T01:27:56.255Z,30.70
2018-05-21T01:28:56.275Z,30.50
2018-05-21T01:29:56.288Z,30.60
2018-05-21T01:30:56.310Z,29.70
2018-05-21T01:31:56.330Z,28.50
2018-05-21T01:32:56.341Z,28.60
2018-05-21T01:33:56.357Z,28.70
2018-05-21T01:34:56.376Z,29.90
2018-05-21T01:35:56.476Z,28.30
2018-05-21T01:36:56.415Z,28.70
2018-05-21T01:37:56.480Z,27.10
2018-05-21T01:38:56.444Z,26.80
2018-05-21T01:39:56.461Z,27.70
2018-05-21T01:40:56.485Z,28.60
2018-05-21T01:41:56.524Z,28.60
2018-05-21T01:42:56.515Z,27.30
2018-05-21T01:43:56.532Z,26.80
2018-05-21T01:44:56.547Z,27.10
2018-05-21T01:45:56.568Z,28.60
2018-05-21T01:46:56.579Z,27.90
2018-05-21T01:47:56.652Z,27.30
2018-05-21T01:48:56.612Z,27.50
2018-05-21T01:49:56.688Z,27.50
2018-05-21T01:50:56.646Z,28.40
2018-05-21T01:51:56.668Z,27.40
2018-05-21T01:52:56.687Z,28.30
2018-05-21T01:53:56.709Z,28.40
2018-05-21T01:54:56.726Z,28.20
2018-05-21T01:55:56.740Z,28.30
2018-05-21T01:56:56.756Z,27.90
2018-05-21T01:57:56.785Z,27.40
2018-05-21T01:58:56.795Z,27.40
2018-05-21T01:59:56.827Z,28.20
2018-05-21T02:00:56.829Z,27.50
2018-05-21T02:01:56.840Z,26.80
2018-05-21T02:02:56.859Z,26.70
2018-05-21T02:03:56.880Z,27.30
2018-05-21T02:04:56.892Z,27.40
2018-05-21T02:05:56.910Z,26.30
2018-05-21T02:06:56.927Z,28.10
2018-05-21T02:07:56.945Z,27.50
2018-05-21T02:08:56.966Z,26.70
2018-05-21T02:09:56.979Z,26.30
2018-05-21T02:10:56.996Z,26.10
2018-05-21T02:11:57.017Z,26.50
2018-05-21T02:12:57.059Z,24.80
2018-05-21T02:13:57.103Z,25.80
2018-05-21T02:14:57.064Z,25.80
2018-05-21T02:15:57.082Z,24.40
2018-05-21T02:16:57.101Z,24.80
2018-05-21T02:17:57.121Z,24.90
2018-05-21T02:18:57.159Z,25.10
2018-05-21T02:19:57.270Z,24.40
2018-05-21T02:20:57.167Z,25.70
2018-05-21T02:21:57.192Z,25.30
2018-05-21T02:22:57.201Z,25.50
2018-05-21T02:23:57.219Z,25.30
2018-05-21T02:24:57.238Z,25.60
2018-05-21T02:25:57.256Z,25.20
2018-05-21T02:26:57.312Z,25.40
2018-05-21T02:27:57.292Z,26.00
2018-05-21T02:28:57.312Z,26.20
2018-05-21T02:29:57.324Z,26.00
2018-05-21T02:30:57.345Z,25.90
2018-05-21T02:31:57.374Z,26.80
2018-05-21T02:32:57.376Z,26.30
2018-05-21T02:33:57.391Z,26.20
2018-05-21T02:34:57.412Z,26.90
2018-05-21T02:35:57.427Z,25.40
2018-05-21T02:36:57.446Z,27.00
2018-05-21T02:37:57.539Z,25.70
2018-05-21T02:38:57.486Z,26.80
2018-05-21T02:39:57.498Z,25.90
2018-05-21T02:40:57.521Z,25.20
2018-05-21T02:41:57.534Z,25.00
2018-05-21T02:42:57.549Z,25.50
2018-05-21T02:43:57.643Z,24.40
2018-05-21T02:44:57.589Z,24.90
2018-05-21T02:45:57.601Z,25.10
2018-05-21T02:46:57.623Z,24.30
2018-05-21T02:47:57.637Z,25.10
2018-05-21T02:48:57.663Z,24.20
2018-05-21T02:49:57.670Z,24.10
2018-05-21T02:50:57.687Z,24.00
2018-05-21T02:51:57.709Z,24.60
2018-05-21T02:52:57.728Z,25.80
2018-05-21T02:53:57.744Z,25.20
2018-05-21T02:54:57.758Z,25.10
2018-05-21T02:55:57.790Z,27.30
2018-05-21T02:56:57.864Z,25.60
2018-05-21T02:57:57.819Z,26.00
2018-05-21T02:58:57.822Z,25.70
2018-05-21T02:59:57.847Z,25.70
2018-05-21T03:00:57.860Z,25.00
2018-05-21T03:01:57.883Z,26.10
2018-05-21T03:02:57.948Z,25.00
2018-05-21T03:03:57.909Z,24.50
2018-05-21T03:04:57.929Z,24.90
2018-05-21T03:05:57.946Z,24.40
2018-05-21T03:06:57.969Z,25.20
2018-05-21T03:07:57.988Z,25.00
2018-05-21T03:08:58.014Z,24.10
2018-05-21T03:09:58.022Z,23.80
2018-05-21T03:10:58.031Z,23.30
2018-05-21T03:11:58.054Z,23.50
2018-05-21T03:12:58.076Z,23.10
2018-05-21T03:13:58.090Z,23.10
2018-05-21T03:14:58.161Z,24.10
2018-05-21T03:15:58.115Z,23.70
2018-05-21T03:16:58.142Z,23.90
2018-05-21T03:17:58.154Z,23.90
2018-05-21T03:18:58.218Z,24.30
2018-05-21T03:19:58.192Z,24.30
2018-05-21T03:20:58.249Z,25.30
2018-05-21T03:21:58.225Z,25.20
2018-05-21T03:22:58.239Z,24.30
2018-05-21T03:23:58.261Z,25.40
2018-05-21T03:24:58.329Z,24.20
2018-05-21T03:25:58.297Z,24.20
2018-05-21T03:26:58.343Z,25.40
2018-05-21T03:27:58.331Z,25.60
2018-05-21T03:28:58.341Z,25.00
2018-05-21T03:29:58.364Z,24.20
2018-05-21T03:30:58.432Z,22.80
2018-05-21T03:31:58.395Z,23.00
2018-05-21T03:32:58.451Z,23.00
2018-05-21T03:33:58.429Z,22.50
2018-05-21T03:34:58.445Z,23.50
2018-05-21T03:35:58.462Z,23.40
2018-05-21T03:36:58.544Z,23.60
2018-05-21T03:37:58.497Z,23.90
2018-05-21T03:38:58.573Z,24.30
2018-05-21T03:39:58.537Z,25.00
2018-05-21T03:40:58.557Z,24.30
2018-05-21T03:41:58.572Z,25.00
2018-05-21T03:42:58.591Z,24.30
2018-05-21T03:43:58.601Z,24.40
2018-05-21T03:44:58.632Z,24.30
2018-05-21T03:45:58.636Z,23.70
2018-05-21T03:46:58.659Z,23.90
2018-05-21T03:47:58.669Z,23.20
2018-05-21T03:48:58.749Z,22.10
2018-05-21T03:49:58.710Z,21.80
2018-05-21T03:50:58.731Z,21.60
2018-05-21T03:51:58.745Z,20.70
2018-05-21T03:52:58.761Z,20.80
2018-05-21T03:53:58.773Z,20.20
2018-05-21T03:54:58.792Z,19.70
2018-05-21T03:55:58.827Z,20.60
2018-05-21T03:56:58.872Z,18.80
2018-05-21T03:57:58.842Z,19.30
2018-05-21T03:58:58.863Z,19.20
2018-05-21T03:59:58.878Z,20.50
2018-05-21T04:00:58.947Z,19.20
2018-05-21T04:01:58.916Z,19.60
2018-05-21T04:02:58.930Z,20.50
2018-05-21T04:03:58.942Z,20.20
2018-05-21T04:04:58.962Z,20.20
2018-05-21T04:05:58.981Z,20.70
2018-05-21T04:06:59.000Z,20.10
2018-05-21T04:07:59.010Z,20.20
2018-05-21T04:08:59.035Z,21.50
2018-05-21T04:09:59.052Z,21.70
2018-05-21T04:10:59.068Z,21.30
2018-05-21T04:11:59.139Z,21.60
2018-05-21T04:12:59.101Z,22.40
2018-05-21T04:13:59.118Z,22.90
2018-05-21T04:14:59.129Z,22.20
2018-05-21T04:15:59.151Z,22.70
2018-05-21T04:16:59.169Z,21.80
2018-05-21T04:17:59.189Z,22.40
2018-05-21T04:18:59.253Z,21.70
2018-05-21T04:19:59.216Z,22.30
2018-05-21T04:20:59.239Z,21.10
2018-05-21T04:21:59.254Z,21.70
2018-05-21T04:22:59.266Z,21.00
2018-05-21T04:23:59.290Z,22.40
2018-05-21T04:24:59.355Z,23.30
2018-05-21T04:25:59.316Z,22.40
2018-05-21T04:26:59.347Z,22.30
2018-05-21T04:27:59.355Z,23.10
2018-05-21T04:28:59.372Z,23.00
2018-05-21T04:29:59.390Z,22.70
2018-05-21T04:30:59.457Z,23.50
2018-05-21T04:31:59.424Z,23.30
2018-05-21T04:32:59.525Z,21.70
2018-05-21T04:33:59.457Z,23.60
2018-05-21T04:34:59.472Z,22.00
2018-05-21T04:35:59.499Z,22.20
2018-05-21T04:36:59.557Z,19.60
2018-05-21T04:37:59.527Z,20.20
2018-05-21T04:38:59.550Z,21.70
2018-05-21T04:39:59.557Z,21.20
2018-05-21T04:40:59.574Z,22.90
2018-05-21T04:41:59.590Z,21.40
2018-05-21T04:42:59.604Z,21.70
2018-05-21T04:43:59.627Z,21.10
2018-05-21T04:44:59.639Z,21.50
2018-05-21T04:45:59.658Z,20.90
2018-05-21T04:46:59.672Z,20.60
2018-05-21T04:47:59.692Z,21.10
2018-05-21T04:48:59.705Z,21.30
2018-05-21T04:49:59.719Z,21.60
2018-05-21T04:50:59.736Z,20.30
2018-05-21T04:51:59.753Z,21.30
2018-05-21T04:52:59.776Z,20.90
2018-05-21T04:53:59.796Z,21.50
2018-05-21T04:54:59.858Z,21.60
2018-05-21T04:55:59.829Z,21.40
2018-05-21T04:56:59.841Z,21.50
2018-05-21T04:57:59.863Z,22.30
2018-05-21T04:58:59.878Z,21.30
2018-05-21T04:59:59.892Z,21.00
2018-05-21T05:00:59.958Z,22.10
2018-05-21T05:01:59.930Z,21.30
2018-05-21T05:02:59.980Z,21.60
2018-05-21T05:03:59.961Z,22.40
2018-05-21T05:04:59.980Z,21.20
2018-05-21T05:05:59.992Z,21.60
2018-05-21T05:07:00.058Z,21.20
2018-05-21T05:08:00.026Z,22.20
2018-05-21T05:09:00.118Z,20.30
2018-05-21T05:10:00.061Z,21.70
2018-05-21T05:11:00.075Z,22.20
2018-05-21T05:12:00.092Z,21.30
2018-05-21T05:13:00.157Z,20.40
2018-05-21T05:14:00.128Z,22.40
2018-05-21T05:15:00.201Z,21.60
2018-05-21T05:16:00.161Z,21.60
2018-05-21T05:17:00.178Z,21.80
2018-05-21T05:18:00.196Z,21.10
2018-05-21T05:19:00.215Z,21.20
2018-05-21T05:20:00.233Z,20.90
2018-05-21T05:21:00.385Z,21.40
2018-05-21T05:22:00.262Z,20.90
2018-05-21T05:23:00.281Z,21.70
2018-05-21T05:24:00.293Z,20.60
2018-05-21T05:25:00.315Z,20.00
2018-05-21T05:26:00.335Z,21.20
2018-05-21T05:27:00.394Z,20.30
2018-05-21T05:28:00.364Z,21.30
2018-05-21T05:29:00.377Z,20.90
2018-05-21T05:30:00.396Z,20.60
2018-05-21T05:31:00.472Z,20.90
2018-05-21T05:32:00.433Z,20.50
2018-05-21T05:33:00.527Z,20.80
2018-05-21T05:34:00.474Z,20.40
2018-05-21T05:35:00.482Z,19.70
2018-05-21T05:36:00.589Z,20.50
2018-05-21T05:37:00.567Z,20.10
2018-05-21T05:38:00.533Z,20.60
2018-05-21T05:39:00.600Z,21.40
2018-05-21T05:40:00.569Z,20.40
2018-05-21T05:41:00.590Z,21.40
2018-05-21T05:42:00.613Z,20.70
2018-05-21T05:43:00.617Z,20.90
2018-05-21T05:44:00.638Z,20.60
2018-05-21T05:45:00.681Z,21.10
2018-05-21T05:46:00.671Z,20.70
2018-05-21T05:47:00.694Z,20.30
2018-05-21T05:48:00.701Z,20.40
2018-05-21T05:49:00.779Z,20.90
2018-05-21T05:50:00.738Z,19.80
2018-05-21T05:51:00.834Z,20.10
2018-05-21T05:52:00.773Z,20.50
2018-05-21T05:53:00.785Z,21.50
2018-05-21T05:54:00.803Z,20.10
2018-05-21T05:55:00.825Z,20.00
2018-05-21T05:56:00.839Z,19.50
2018-05-21T05:57:00.930Z,20.50
2018-05-21T05:58:00.874Z,19.60
2018-05-21T05:59:00.889Z,19.70
2018-05-21T06:00:00.912Z,20.50
2018-05-21T06:01:00.987Z,20.70
2018-05-21T06:02:00.943Z,20.50
2018-05-21T06:03:00.960Z,19.90
2018-05-21T06:04:00.976Z,19.90
2018-05-21T06:05:00.993Z,20.50
2018-05-21T06:06:01.014Z,19.90
2018-05-21T06:07:01.027Z,20.70
2018-05-21T06:08:01.045Z,20.10
2018-05-21T06:09:01.129Z,20.90
2018-05-21T06:10:01.076Z,20.30
2018-05-21T06:11:01.093Z,19.50
2018-05-21T06:12:01.110Z,18.60
2018-05-21T06:13:01.127Z,20.20
2018-05-21T06:14:01.156Z,19.40
2018-05-21T06:15:01.182Z,19.90
2018-05-21T06:16:01.185Z,19.60
2018-05-21T06:17:01.202Z,19.20
2018-05-21T06:18:01.221Z,18.90
2018-05-21T06:19:01.283Z,19.50
2018-05-21T06:20:01.252Z,19.50
2018-05-21T06:21:01.338Z,20.00
2018-05-21T06:22:01.287Z,19.10
2018-05-21T06:23:01.312Z,18.80
2018-05-21T06:24:01.317Z,19.10
2018-05-21T06:25:01.390Z,18.90
2018-05-21T06:26:01.450Z,18.60
2018-05-21T06:27:01.377Z,18.60
2018-05-21T06:28:01.383Z,19.80
2018-05-21T06:29:01.405Z,19.70
2018-05-21T06:30:01.424Z,18.90
2018-05-21T06:31:01.492Z,19.90
2018-05-21T06:32:01.455Z,17.60
2018-05-21T06:33:01.479Z,19.90
2018-05-21T06:34:01.565Z,18.80
2018-05-21T06:35:01.515Z,18.60
2018-05-21T06:36:01.527Z,18.80
2018-05-21T06:37:01.593Z,19.20
2018-05-21T06:38:01.559Z,19.40
2018-05-21T06:39:01.672Z,18.20
2018-05-21T06:40:01.595Z,18.00
2018-05-21T06:41:01.701Z,17.40
2018-05-21T06:42:01.628Z,18.00
2018-05-21T06:43:01.649Z,17.10
2018-05-21T06:44:01.670Z,18.00
2018-05-21T06:45:01.678Z,18.20
2018-05-21T06:46:01.701Z,16.60
2018-05-21T06:47:01.714Z,17.10
2018-05-21T06:48:01.736Z,16.00
2018-05-21T06:49:01.753Z,16.00
2018-05-21T06:50:01.766Z,16.10
2018-05-21T06:51:01.783Z,15.90
2018-05-21T06:52:01.806Z,15.80
2018-05-21T06:53:01.818Z,14.70
2018-05-21T06:54:01.835Z,14.90
2018-05-21T06:55:01.910Z,14.50
2018-05-21T06:56:01.876Z,15.00
2018-05-21T06:57:01.890Z,14.40
2018-05-21T06:58:01.912Z,14.90
2018-05-21T06:59:01.934Z,14.80
2018-05-21T07:00:01.943Z,14.40
2018-05-21T07:01:01.965Z,14.00
2018-05-21T07:02:01.982Z,13.80
2018-05-21T07:03:02.000Z,13.80
2018-05-21T07:04:02.016Z,14.80
2018-05-21T07:05:02.043Z,14.40
2018-05-21T07:06:02.071Z,14.20
2018-05-21T07:07:02.075Z,13.60
2018-05-21T07:08:02.188Z,13.60
2018-05-21T07:09:02.124Z,13.60
2018-05-21T07:10:02.127Z,12.90
2018-05-21T07:11:02.140Z,13.80
2018-05-21T07:12:02.159Z,14.00
2018-05-21T07:13:02.230Z,13.90
2018-05-21T07:14:02.197Z,14.20
2018-05-21T07:15:02.212Z,13.40
2018-05-21T07:16:02.242Z,14.20
2018-05-21T07:17:02.247Z,15.00
2018-05-21T07:18:02.282Z,13.90
2018-05-21T07:19:02.291Z,14.30
2018-05-21T07:20:02.304Z,14.20
2018-05-21T07:21:02.325Z,13.90
2018-05-21T07:22:02.346Z,14.70
2018-05-21T07:23:02.363Z,15.70
2018-05-21T07:24:02.383Z,16.10
2018-05-21T07:25:02.401Z,15.20
2018-05-21T07:26:02.416Z,15.90
2018-05-21T07:27:02.441Z,16.00
2018-05-21T07:28:02.459Z,16.50
2018-05-21T07:29:02.477Z,17.20
2018-05-21T07:30:02.495Z,16.30
2018-05-21T07:31:02.514Z,16.50
2018-05-21T07:32:02.541Z,15.50
2018-05-21T07:33:02.547Z,14.70
2018-05-21T07:34:02.571Z,14.70
2018-05-21T07:35:02.592Z,15.00
2018-05-21T07:36:02.813Z,14.00
2018-05-21T07:37:02.881Z,14.20
2018-05-21T07:38:02.646Z,14.50
2018-05-21T07:39:02.660Z,15.30
2018-05-21T07:40:02.683Z,15.10
2018-05-21T07:41:02.902Z,13.80
2018-05-21T07:42:02.930Z,15.50
2018-05-21T07:43:02.794Z,13.30
2018-05-21T07:44:02.759Z,13.00
2018-05-21T07:45:02.779Z,13.70
2018-05-21T07:46:02.797Z,13.30
2018-05-21T07:47:02.818Z,12.70
2018-05-21T07:48:02.834Z,13.20
2018-05-21T07:49:02.852Z,13.50
2018-05-21T07:50:02.917Z,13.00
2018-05-21T07:51:02.892Z,12.90
2018-05-21T07:52:02.916Z,12.90
2018-05-21T07:53:02.928Z,13.50
2018-05-21T07:54:02.953Z,13.30
2018-05-21T07:55:02.972Z,17.30
2018-05-21T07:56:03.058Z,16.30
2018-05-21T07:57:03.009Z,14.00
2018-05-21T07:58:03.031Z,12.70
2018-05-21T07:59:03.049Z,16.20
2018-05-21T08:00:03.071Z,17.90
2018-05-21T08:01:03.086Z,12.60
2018-05-21T08:02:03.108Z,13.70
2018-05-21T08:03:03.127Z,12.90
2018-05-21T08:04:03.146Z,14.60
2018-05-21T08:05:03.319Z,13.30
2018-05-21T08:06:03.183Z,14.60
2018-05-21T08:07:03.210Z,13.30
2018-05-21T08:08:03.225Z,12.30
2018-05-21T08:09:03.246Z,15.10
2018-05-21T08:10:03.267Z,16.10
2018-05-21T08:11:03.290Z,13.60
2018-05-21T08:12:03.304Z,14.20
2018-05-21T08:13:03.330Z,14.00
2018-05-21T08:14:03.372Z,13.20
2018-05-21T08:15:03.371Z,16.60
2018-05-21T08:16:03.398Z,13.40
2018-05-21T08:17:03.411Z,19.10
2018-05-21T08:18:03.430Z,12.70
2018-05-21T08:19:03.495Z,11.80
2018-05-21T08:20:03.473Z,12.10
2018-05-21T08:21:03.490Z,12.70
2018-05-21T08:22:03.515Z,12.40
2018-05-21T08:23:03.529Z,12.60
2018-05-21T08:24:03.554Z,12.90
2018-05-21T08:25:03.678Z,19.90
2018-05-21T08:26:03.593Z,12.90
2018-05-21T08:27:03.616Z,12.50
2018-05-21T08:28:03.643Z,12.20
2018-05-21T08:29:03.656Z,12.30
2018-05-21T08:30:03.677Z,12.10
2018-05-21T08:31:03.785Z,13.50
2018-05-21T08:32:03.711Z,19.10
2018-05-21T08:33:03.734Z,12.80
2018-05-21T08:34:03.760Z,12.40
2018-05-21T08:35:03.775Z,13.10
2018-05-21T08:36:03.800Z,20.50
2018-05-21T08:37:03.874Z,14.60
2018-05-21T08:38:03.841Z,12.60
2018-05-21T08:39:03.858Z,13.00
2018-05-21T08:40:03.877Z,12.80
2018-05-21T08:41:03.898Z,12.60
2018-05-21T08:42:03.924Z,12.80
2018-05-21T08:43:03.936Z,13.00
2018-05-21T08:44:03.957Z,12.50
2018-05-21T08:45:03.985Z,12.30
2018-05-21T08:46:04.005Z,12.60
2018-05-21T08:47:04.026Z,13.20
2018-05-21T08:48:04.045Z,12.60
2018-05-21T08:49:04.065Z,12.30
2018-05-21T08:50:04.091Z,11.50
2018-05-21T08:51:04.106Z,11.60
2018-05-21T08:52:04.133Z,15.50
2018-05-21T08:53:04.154Z,12.10
2018-05-21T08:54:04.171Z,11.80
2018-05-21T08:55:04.193Z,11.90
2018-05-21T08:56:04.214Z,11.40
2018-05-21T08:57:04.237Z,12.10
2018-05-21T08:58:04.253Z,11.40
2018-05-21T08:59:04.274Z,11.80
2018-05-21T09:00:04.299Z,11.90
2018-05-21T09:01:04.324Z,64.00
2018-05-21T09:02:04.338Z,12.90
2018-05-21T09:03:04.363Z,11.80
2018-05-21T09:04:04.388Z,11.60
2018-05-21T09:05:04.406Z,11.60
2018-05-21T09:06:04.431Z,21.20
2018-05-21T09:07:04.456Z,11.30
2018-05-21T09:08:04.472Z,12.30
2018-05-21T09:09:04.499Z,11.10
2018-05-21T09:10:04.582Z,18.10
2018-05-21T09:11:04.544Z,17.40
2018-05-21T09:12:04.615Z,11.30
2018-05-21T09:13:04.632Z,11.40
2018-05-21T09:14:04.665Z,11.30
2018-05-21T09:15:04.630Z,11.70
2018-05-21T09:16:04.648Z,13.10
2018-05-21T09:17:04.673Z,14.00
2018-05-21T09:19:04.777Z,13.70
2018-05-21T09:20:04.790Z,14.90
2018-05-21T09:21:04.775Z,14.60
2018-05-21T09:22:04.791Z,14.50
2018-05-21T09:23:04.839Z,14.90
2018-05-21T09:24:04.886Z,14.50
2018-05-21T09:25:04.931Z,13.90
2018-05-21T09:26:04.982Z,18.90
2018-05-21T09:27:04.943Z,14.70
2018-05-21T09:28:04.912Z,15.30
2018-05-21T09:29:04.929Z,15.30
2018-05-21T09:30:04.951Z,15.10
2018-05-21T09:31:05.046Z,20.90
2018-05-21T09:32:04.994Z,15.10
2018-05-21T09:33:05.014Z,14.70
2018-05-21T09:34:05.035Z,14.60
2018-05-21T09:35:05.065Z,23.50
2018-05-21T09:36:05.081Z,15.10
2018-05-21T09:37:05.103Z,15.10
2018-05-21T09:38:05.122Z,13.70
2018-05-21T09:39:05.141Z,13.90
2018-05-21T09:40:05.164Z,27.70
2018-05-21T09:41:05.194Z,13.70
2018-05-21T09:42:05.256Z,14.30
2018-05-21T09:43:05.224Z,14.60
2018-05-21T09:44:05.244Z,15.00
2018-05-21T09:45:05.273Z,17.20
2018-05-21T09:46:05.288Z,14.50
2018-05-21T09:47:05.310Z,14.10
2018-05-21T09:48:05.372Z,14.50
2018-05-21T09:49:05.410Z,13.40
2018-05-21T09:50:05.372Z,14.00
2018-05-21T09:51:05.399Z,14.20
2018-05-21T09:52:05.422Z,14.20
2018-05-21T09:53:05.448Z,13.80
2018-05-21T09:54:05.480Z,14.00
2018-05-21T09:55:05.538Z,14.20
2018-05-21T09:56:05.509Z,16.10
2018-05-21T09:57:05.531Z,13.70
2018-05-21T09:58:05.547Z,12.50
2018-05-21T09:59:05.571Z,11.90
2018-05-21T10:00:05.614Z,12.70
2018-05-21T10:01:05.682Z,12.30
2018-05-21T10:02:05.635Z,15.20
2018-05-21T10:03:05.655Z,17.40
2018-05-21T10:04:05.684Z,15.20
2018-05-21T10:05:05.703Z,11.30
2018-05-21T10:06:05.723Z,11.60
2018-05-21T10:07:05.749Z,16.60
2018-05-21T10:08:05.761Z,12.10
2018-05-21T10:09:05.798Z,11.60
2018-05-21T10:10:05.822Z,11.30
2018-05-21T10:11:05.831Z,10.50
2018-05-21T10:12:05.933Z,11.00
2018-05-21T10:13:05.869Z,17.90
2018-05-21T10:14:05.906Z,13.90
2018-05-21T10:15:05.916Z,11.40
2018-05-21T10:16:05.938Z,10.80
2018-05-21T10:17:05.959Z,9.80
2018-05-21T10:18:05.977Z,10.40
2018-05-21T10:19:06.055Z,14.40
2018-05-21T10:20:06.021Z,10.70
2018-05-21T10:21:06.041Z,10.30
2018-05-21T10:22:06.060Z,10.20
2018-05-21T10:23:06.089Z,9.90
2018-05-21T10:24:06.114Z,9.90
2018-05-21T10:25:06.182Z,9.50
2018-05-21T10:26:06.175Z,9.80
2018-05-21T10:27:06.172Z,9.40
2018-05-21T10:28:06.197Z,10.30
2018-05-21T10:29:06.211Z,9.70
2018-05-21T10:30:06.235Z,9.60
2018-05-21T10:31:06.258Z,10.20
2018-05-21T10:32:06.277Z,13.20
2018-05-21T10:33:06.297Z,10.10
2018-05-21T10:34:06.317Z,9.80
2018-05-21T10:35:06.344Z,9.60
2018-05-21T10:36:06.362Z,10.10
2018-05-21T10:37:06.512Z,9.30
2018-05-21T10:38:06.424Z,9.10
2018-05-21T10:39:06.424Z,9.10
2018-05-21T10:40:06.447Z,9.40
2018-05-21T10:41:06.471Z,9.20
2018-05-21T10:42:06.491Z,9.80
2018-05-21T10:43:06.562Z,12.00
2018-05-21T10:44:06.534Z,9.50
2018-05-21T10:45:06.556Z,9.70
2018-05-21T10:46:06.579Z,13.80
2018-05-21T10:47:06.645Z,10.30
2018-05-21T10:48:06.624Z,9.70
2018-05-21T10:49:06.647Z,12.00
2018-05-21T10:50:06.661Z,9.40
2018-05-21T10:51:06.680Z,8.80
2018-05-21T10:52:06.701Z,9.10
2018-05-21T10:53:06.738Z,9.40
2018-05-21T10:54:06.776Z,9.50
2018-05-21T10:55:06.771Z,9.80
2018-05-21T10:56:06.833Z,12.00
2018-05-21T10:57:06.817Z,9.70
2018-05-21T10:58:06.840Z,9.40
2018-05-21T10:59:06.855Z,9.40
2018-05-21T11:00:06.883Z,9.60
2018-05-21T11:01:06.901Z,10.40
2018-05-21T11:02:06.918Z,9.90
2018-05-21T11:03:06.947Z,11.00
2018-05-21T11:04:06.964Z,10.00
2018-05-21T11:05:06.985Z,9.60
2018-05-21T11:06:07.021Z,10.20
2018-05-21T11:07:07.033Z,9.70
2018-05-21T11:08:07.054Z,9.80
2018-05-21T11:09:07.072Z,9.40
2018-05-21T11:10:07.096Z,10.10
2018-05-21T11:11:07.114Z,9.50
2018-05-21T11:12:07.171Z,9.30
2018-05-21T11:13:07.166Z,9.60
2018-05-21T11:14:07.200Z,9.60
2018-05-21T11:15:07.205Z,10.10
2018-05-21T11:16:07.227Z,10.00
2018-05-21T11:17:07.248Z,10.70
2018-05-21T11:18:07.303Z,9.40
2018-05-21T11:19:07.345Z,10.60
2018-05-21T11:20:07.309Z,13.40
2018-05-21T11:21:07.334Z,9.80
2018-05-21T11:22:07.354Z,10.10
2018-05-21T11:23:07.381Z,9.70
2018-05-21T11:24:07.414Z,10.50
2018-05-21T11:25:07.425Z,10.00
2018-05-21T11:26:07.449Z,10.50
2018-05-21T11:27:07.466Z,9.70
2018-05-21T11:28:07.487Z,10.30
2018-05-21T11:29:07.503Z,10.70
2018-05-21T11:30:07.571Z,10.50
2018-05-21T11:31:07.603Z,10.30
2018-05-21T11:32:07.567Z,10.50
2018-05-21T11:33:07.591Z,17.10
2018-05-21T11:34:07.617Z,9.80
2018-05-21T11:35:07.630Z,10.60
2018-05-21T11:36:07.653Z,10.10
2018-05-21T11:37:07.676Z,10.20
2018-05-21T11:38:07.701Z,9.90
2018-05-21T11:39:07.723Z,10.00
2018-05-21T11:40:07.739Z,10.00
2018-05-21T11:41:07.763Z,10.30
2018-05-21T11:42:07.787Z,10.20
2018-05-21T11:43:07.808Z,9.90
2018-05-21T11:44:07.827Z,9.80
2018-05-21T11:45:07.852Z,11.90
2018-05-21T11:46:07.867Z,9.30
2018-05-21T11:47:07.890Z,10.80
2018-05-21T11:48:07.912Z,22.80
2018-05-21T11:49:07.985Z,11.30
2018-05-21T11:50:07.958Z,10.60
2018-05-21T11:51:07.977Z,10.40
2018-05-21T11:52:08.001Z,9.50
2018-05-21T11:53:08.026Z,14.10
2018-05-21T11:54:08.046Z,9.70
2018-05-21T11:55:08.066Z,10.30
2018-05-21T11:56:08.089Z,12.50
2018-05-21T11:57:08.106Z,10.20
2018-05-21T11:58:08.134Z,9.90
2018-05-21T11:59:08.148Z,9.40
2018-05-21T12:00:08.175Z,9.80
2018-05-21T12:01:08.250Z,9.90
2018-05-21T12:02:08.317Z,9.90
2018-05-21T12:03:08.260Z,10.60
2018-05-21T12:04:08.264Z,10.50
2018-05-21T12:05:08.281Z,10.80
2018-05-21T12:06:08.304Z,9.70
2018-05-21T12:07:08.329Z,9.80
2018-05-21T12:08:08.344Z,11.20
2018-05-21T12:09:08.371Z,10.60
2018-05-21T12:10:08.400Z,9.80
2018-05-21T12:11:08.407Z,10.40
2018-05-21T12:12:08.428Z,9.60
2018-05-21T12:13:08.504Z,9.40
2018-05-21T12:14:08.478Z,10.80
2018-05-21T12:15:08.503Z,10.20
2018-05-21T12:16:08.520Z,9.10
2018-05-21T12:17:08.536Z,10.10
2018-05-21T12:18:08.564Z,9.00
2018-05-21T12:19:08.587Z,9.80
2018-05-21T12:20:08.609Z,8.70
2018-05-21T12:21:08.623Z,9.10
2018-05-21T12:22:08.651Z,9.00
2018-05-21T12:23:08.664Z,9.40
2018-05-21T12:24:08.688Z,8.50
2018-05-21T12:25:08.711Z,9.10
2018-05-21T12:26:08.739Z,9.30
2018-05-21T12:27:08.760Z,9.10
2018-05-21T12:28:08.780Z,9.30
2018-05-21T12:29:08.805Z,8.70
2018-05-21T12:30:08.828Z,9.10
2018-05-21T12:31:08.899Z,9.50
2018-05-21T12:32:08.870Z,9.40
2018-05-21T12:33:08.890Z,9.60
2018-05-21T12:34:08.914Z,9.80
2018-05-21T12:35:08.930Z,11.20
2018-05-21T12:36:08.956Z,9.70
2018-05-21T12:37:08.977Z,11.50
2018-05-21T12:38:09.012Z,9.60
2018-05-21T12:39:09.099Z,9.40
2018-05-21T12:40:09.043Z,9.20
2018-05-21T12:41:09.070Z,8.90
2018-05-21T12:42:09.087Z,9.70
2018-05-21T12:43:09.106Z,9.20
2018-05-21T12:44:09.125Z,9.80
2018-05-21T12:45:09.152Z,9.20
2018-05-21T12:46:09.171Z,9.70
2018-05-21T12:47:09.188Z,8.70
2018-05-21T12:48:09.215Z,8.90
2018-05-21T12:49:09.234Z,9.70
2018-05-21T12:50:09.265Z,9.00
2018-05-21T12:51:09.275Z,9.60
2018-05-21T12:52:09.299Z,9.50
2018-05-21T12:53:09.331Z,9.90
2018-05-21T12:54:09.347Z,9.10
2018-05-21T12:55:09.367Z,9.30
2018-05-21T12:56:09.385Z,12.90
2018-05-21T12:57:09.402Z,10.10